Time;durP1;ratioP1;P1;durP2;ratioP2;P2;SDS_P1;SDS_P2;PMS_P1;PMS_P2;Temp;Humidity;BMP_temperature;BMP_pressure;BME280_temperature;BME280_humidity;BME280_pressure;Samples;Min_cycle;Max_cycle;Signal;HPM_P1;HPM_P2
2022/10/28 00:01:24;;;;;;;9.63;4.32;;;16.80;76.50;;;19.66;48.95;98321.47;4907747;29;20263;-48
2022/10/28 00:03:55;;;;;;;11.30;4.40;;;16.70;76.80;;;19.63;49.25;98308.38;4906931;29;20054;-51
2022/10/28 00:06:30;;;;;;;6.68;3.28;;;16.60;76.90;;;19.65;49.11;98317.91;4890083;29;20079;-49
2022/10/28 00:08:59;;;;;;;4.50;3.00;;;16.70;76.80;;;19.64;49.08;98318.97;4890821;29;20056;-53
2022/10/28 00:11:32;;;;;;;9.00;3.53;;;16.70;76.60;;;19.65;49.35;98314.38;4890620;29;20059;-52
2022/10/28 00:14:04;;;;;;;6.13;3.28;;;16.80;76.40;;;19.68;49.17;98322.09;4890450;29;20045;-47
2022/10/28 00:16:36;;;;;;;9.45;3.63;;;16.80;76.10;;;19.66;49.06;98314.19;4890674;29;20048;-49
2022/10/28 00:19:06;;;;;;;9.75;3.35;;;16.80;75.80;;;19.66;49.05;98306.09;4907017;29;20055;-48
2022/10/28 00:21:36;;;;;;;7.68;3.60;;;16.80;75.60;;;19.66;48.80;98308.78;4906570;29;20232;-47
2022/10/28 00:24:06;;;;;;;10.10;3.70;;;16.90;75.50;;;19.71;49.00;98299.25;4906641;29;20048;-50
2022/10/28 00:26:37;;;;;;;7.03;3.67;;;16.90;75.40;;;19.74;48.78;98298.88;4906807;29;20052;-50
2022/10/28 00:29:09;;;;;;;9.40;4.63;;;17.00;75.10;;;19.73;48.71;98300.72;4889823;29;20354;-50
2022/10/28 00:31:38;;;;;;;5.97;3.85;;;16.90;74.80;;;19.75;48.65;98306.75;4904612;29;20044;-49
2022/10/28 00:34:15;;;;;;;5.13;3.00;;;17.00;74.70;;;19.77;48.71;98309.25;4910499;29;20056;-50
2022/10/28 00:36:45;;;;;;;8.65;4.57;;;17.00;74.70;;;19.76;48.77;98305.72;4910581;29;20063;-49
2022/10/28 00:39:19;;;;;;;8.93;4.28;;;16.90;74.80;;;19.74;48.77;98296.19;4894267;29;20041;-47
2022/10/28 00:41:57;;;;;;;11.93;6.07;;;16.90;74.70;;;19.70;48.60;98300.25;4910431;29;20056;-50
2022/10/28 00:44:57;;;;;;;11.50;5.95;;;16.90;74.50;;;19.67;48.74;98294.25;4908493;29;20071;-48
2022/10/28 00:47:54;;;;;;;7.55;3.25;;;16.90;73.90;;;19.74;48.41;98315.09;4910963;29;20063;-48
2022/10/28 00:50:50;;;;;;;13.27;3.10;;;17.00;73.40;;;19.77;48.24;98306.56;4910429;29;20052;-52
2022/10/28 00:53:27;;;;;;;7.93;3.00;;;17.20;72.10;;;19.80;47.96;98306.97;4895386;29;20040;-49
2022/10/28 00:55:59;;;;;;;9.05;3.08;;;17.20;71.80;;;19.84;47.79;98310.13;4894182;29;20338;-50
2022/10/28 00:58:27;;;;;;;9.90;3.80;;;17.30;71.90;;;19.85;47.82;98304.50;4910500;29;20040;-53
2022/10/28 01:00:55;;;;;;;11.60;3.00;;;17.30;71.60;;;19.89;47.89;98301.38;4910389;29;20056;-50
2022/10/28 01:03:23;;;;;;;6.47;3.25;;;17.40;71.40;;;19.93;47.79;98299.94;4910222;29;20048;-50
2022/10/28 01:05:52;;;;;;;9.73;3.25;;;17.40;71.10;;;19.99;47.44;98294.56;4909872;29;20369;-51
2022/10/28 01:08:20;;;;;;;7.10;3.72;;;17.50;71.20;;;20.04;47.48;98302.03;4910359;29;20285;-49
2022/10/28 01:11:32;;;;;;;4.50;2.75;;;17.50;71.20;;;20.10;47.58;98300.38;4909959;29;20058;-49
2022/10/28 01:14:29;;;;;;;6.03;3.67;;;17.50;71.00;;;20.13;47.39;98303.50;4867959;29;20060;-48
2022/10/28 01:17:38;;;;;;;5.88;3.10;;;17.50;71.00;;;20.14;47.65;98296.22;4909960;29;20055;-51
2022/10/28 01:21:20;;;;;;;6.50;3.10;;;17.50;70.80;;;20.14;47.63;98293.53;4910096;29;20052;-50
2022/10/28 01:24:10;;;;;;;6.15;2.90;;;17.50;70.80;;;20.14;47.62;98294.38;4908085;29;20074;-48
2022/10/28 01:27:01;;;;;;;7.18;3.25;;;17.50;71.20;;;20.15;47.37;98295.19;4909952;29;20242;-48
2022/10/28 01:29:52;;;;;;;10.73;3.88;;;17.50;70.90;;;20.11;47.39;98297.47;4909969;29;20062;-48
2022/10/28 01:32:39;;;;;;;6.40;3.33;;;17.50;70.20;;;20.14;47.27;98297.06;4892910;29;20047;-50
2022/10/28 01:35:38;;;;;;;6.55;3.25;;;17.50;70.70;;;20.14;47.15;98297.06;4909241;29;20059;-50
2022/10/28 01:38:47;;;;;;;6.25;3.30;;;17.60;70.00;;;20.18;47.28;98298.31;4909459;29;20059;-52
2022/10/28 01:41:44;;;;;;;11.18;5.55;;;17.60;70.20;;;20.22;47.22;98301.41;4884451;29;20052;-52
2022/10/28 01:44:31;;;;;;;7.30;3.17;;;17.50;70.30;;;20.18;47.21;98298.31;4892883;29;20053;-48
2022/10/28 01:47:27;;;;;;;9.38;3.72;;;17.50;70.60;;;20.21;47.33;98300.59;4909453;29;20051;-51
2022/10/28 01:50:00;;;;;;;7.88;3.58;;;17.50;70.20;;;20.25;46.90;98295.63;4893705;29;20052;-48
2022/10/28 01:52:30;;;;;;;5.88;3.13;;;17.50;70.70;;;20.25;47.24;98303.72;4892391;29;20048;-49
2022/10/28 01:55:16;;;;;;;10.50;3.47;;;17.50;70.60;;;20.27;46.97;98302.47;4908961;29;20049;-51
2022/10/28 01:57:46;;;;;;;7.97;3.60;;;17.50;70.60;;;20.29;46.90;98296.03;4893329;29;20059;-52
2022/10/28 02:00:15;;;;;;;5.07;3.38;;;17.60;70.70;;;20.29;47.03;98296.84;4892819;29;20056;-50
2022/10/28 02:02:43;;;;;;;7.18;3.25;;;17.60;70.80;;;20.29;47.00;98288.75;4892622;29;20049;-50
2022/10/28 02:05:47;;;;;;;9.82;4.05;;;17.50;71.00;;;20.31;47.33;98297.47;4892536;29;20236;-49
2022/10/28 02:08:17;;;;;;;8.13;3.05;;;17.50;70.90;;;20.33;47.11;98290.00;4909003;29;20243;-49
2022/10/28 02:11:21;;;;;;;7.55;3.22;;;17.50;71.30;;;20.31;47.09;98294.78;4909218;29;20342;-48
2022/10/28 02:14:46;;;;;;;5.88;3.83;;;17.50;70.70;;;20.36;46.96;98292.28;4846501;29;20240;-49
2022/10/28 02:17:28;;;;;;;;;;;17.40;71.20;;;20.47;46.77;98296.22;4892894;29;20255;-48
2022/10/28 02:20:17;;;;;;;5.75;3.22;;;17.30;71.70;;;20.33;46.94;98287.28;4908990;29;19920;-48
2022/10/28 02:23:14;;;;;;;7.75;4.07;;;17.30;72.10;;;20.20;47.15;98290.84;4892289;29;20049;-50
2022/10/28 02:25:55;;;;;;;8.35;4.30;;;17.20;72.40;;;20.10;47.30;98285.00;4842100;29;20369;-50
2022/10/28 02:28:48;;;;;;;5.85;4.63;;;17.10;72.70;;;20.00;47.48;98280.00;4892735;29;20053;-49
2022/10/28 02:31:42;;;;;;;8.48;4.28;;;17.10;73.00;;;19.94;47.60;98269.19;4892348;29;20126;-49
2022/10/28 02:34:35;;;;;;;6.15;3.45;;;17.00;73.70;;;19.86;47.93;98271.03;4908177;29;20224;-47
2022/10/28 02:37:12;;;;;;;8.70;4.50;;;16.90;74.30;;;19.85;48.11;98276.66;4908686;29;20075;-47
2022/10/28 02:39:45;;;;;;;9.80;4.30;;;16.90;74.40;;;19.83;48.22;98274.16;4904745;29;20050;-48
2022/10/28 02:42:27;;;;;;;8.05;3.35;;;16.90;74.50;;;19.90;48.26;98278.75;4907896;29;20364;-52
2022/10/28 02:45:12;;;;;;;8.45;3.63;;;16.90;74.40;;;19.92;48.23;98274.78;4906188;29;20048;-51
2022/10/28 02:47:50;;;;;;;7.50;3.50;;;17.00;74.40;;;19.96;48.18;98277.91;4907530;29;20044;-51
2022/10/28 02:50:24;;;;;;;9.20;4.03;;;17.00;74.20;;;19.96;48.14;98272.50;4907243;29;20049;-49
2022/10/28 02:52:57;;;;;;;5.28;3.53;;;17.10;74.30;;;19.97;48.28;98266.91;4907420;29;20246;-48
2022/10/28 02:55:34;;;;;;;7.00;3.20;;;17.10;74.20;;;20.03;47.99;98270.66;4906504;29;20044;-48
2022/10/28 02:58:04;;;;;;;7.22;4.00;;;17.10;74.00;;;20.03;47.97;98267.97;4907231;29;20347;-51
2022/10/28 03:00:31;;;;;;;7.32;3.47;;;17.20;73.70;;;20.03;48.26;98262.56;4907026;29;20048;-51
2022/10/28 03:02:59;;;;;;;5.80;3.20;;;17.20;73.60;;;20.05;47.91;98266.69;4908226;29;20057;-48
2022/10/28 03:05:27;;;;;;;8.43;3.50;;;17.30;73.30;;;20.11;47.71;98275.03;4907565;29;20050;-51
2022/10/28 03:07:55;;;;;;;11.25;4.35;;;17.30;73.70;;;20.16;47.87;98272.53;4908505;29;20052;-49
2022/10/28 03:10:23;;;;;;;6.13;3.55;;;17.40;72.30;;;20.20;47.63;98273.75;4908390;29;20067;-50
2022/10/28 03:12:51;;;;;;;8.10;4.07;;;17.50;72.20;;;20.25;47.66;98280.22;4906917;29;20365;-49
2022/10/28 03:15:18;;;;;;;5.90;3.20;;;17.50;72.00;;;20.31;47.70;98281.25;4907256;29;20057;-49
2022/10/28 03:17:46;;;;;;;5.45;3.38;;;17.60;71.80;;;20.38;47.68;98283.97;4908482;29;20067;-49
2022/10/28 03:20:14;;;;;;;6.15;3.50;;;17.60;71.80;;;20.41;47.65;98284.41;4907502;29;20115;-48
2022/10/28 03:22:43;;;;;;;7.25;4.90;;;17.60;71.90;;;20.38;47.39;98290.22;4907879;29;20059;-51
2022/10/28 03:25:11;;;;;;;7.50;5.03;;;17.60;72.10;;;20.34;47.83;98294.38;4907283;29;20044;-51
2022/10/28 03:27:40;;;;;;;8.40;3.97;;;17.50;72.50;;;20.28;47.85;98289.81;4907670;29;20048;-49
2022/10/28 03:30:08;;;;;;;8.93;4.15;;;17.50;72.50;;;20.26;47.47;98281.91;4907660;29;20235;-49
2022/10/28 03:32:39;;;;;;;8.77;3.55;;;17.40;72.90;;;20.26;47.89;98281.91;4905719;29;20059;-49
2022/10/28 03:35:07;;;;;;;10.25;4.20;;;17.40;73.10;;;20.31;47.82;98280.44;4906928;29;20051;-53
2022/10/28 03:37:35;;;;;;;8.85;3.90;;;17.40;73.10;;;20.34;47.55;98282.72;4907384;29;20044;-49
2022/10/28 03:40:06;;;;;;;7.45;4.10;;;17.40;73.20;;;20.33;47.68;98276.47;4907888;29;20048;-52
2022/10/28 03:42:34;;;;;;;8.60;5.07;;;17.40;73.30;;;20.35;47.65;98262.75;4907571;29;20056;-50
2022/10/28 03:45:09;;;;;;;7.95;3.50;;;17.30;73.60;;;20.33;47.62;98254.03;4906253;29;20048;-50
2022/10/28 03:47:36;;;;;;;9.05;4.25;;;17.30;73.10;;;20.33;47.33;98240.50;4907478;29;20036;-49
2022/10/28 03:50:05;;;;;;;5.55;3.10;;;17.40;72.70;;;20.31;47.57;98240.69;4907240;29;20051;-49
2022/10/28 03:52:33;;;;;;;6.55;3.90;;;17.50;72.50;;;20.31;47.80;98248.00;4907352;29;20048;-51
2022/10/28 03:55:00;;;;;;;5.05;3.13;;;17.50;72.50;;;20.30;47.44;98249.00;4906624;29;20041;-49
2022/10/28 03:57:32;;;;;;;6.65;4.00;;;17.50;72.60;;;20.29;47.64;98244.66;4907432;29;20048;-48
2022/10/28 04:00:00;;;;;;;10.02;4.03;;;17.40;72.60;;;20.24;47.65;98243.41;4906675;29;20078;-49
2022/10/28 04:02:38;;;;;;;8.45;4.32;;;17.40;72.20;;;20.25;47.46;98238.84;4909272;29;20052;-52
2022/10/28 04:05:06;;;;;;;4.75;2.78;;;17.40;72.00;;;20.27;46.97;98234.06;4906215;29;20052;-49
2022/10/28 04:07:34;;;;;;;6.50;3.10;;;17.50;71.50;;;20.31;46.88;98229.88;4906853;29;20376;-49
2022/10/28 04:10:02;;;;;;;8.40;2.92;;;17.50;70.80;;;20.34;46.79;98239.47;4907416;29;20052;-52
2022/10/28 04:12:30;;;;;;;6.03;2.72;;;17.60;70.40;;;20.38;47.03;98235.31;4907101;29;20362;-51
2022/10/28 04:14:59;;;;;;;9.27;3.80;;;17.70;70.40;;;20.41;46.95;98230.31;4906418;29;20055;-51
2022/10/28 04:17:26;;;;;;;4.55;2.80;;;17.70;70.40;;;20.45;46.76;98233.41;4906976;29;20049;-50
2022/10/28 04:19:54;;;;;;;8.48;3.30;;;17.80;70.20;;;20.48;46.74;98235.69;4907015;29;20056;-48
2022/10/28 04:22:22;;;;;;;6.28;2.92;;;17.70;70.00;;;20.53;46.18;98237.75;4906952;29;20040;-52
2022/10/28 04:24:51;;;;;;;6.40;3.00;;;17.80;69.60;;;20.52;46.63;98236.13;4906316;29;20062;-49
2022/10/28 04:27:20;;;;;;;4.30;2.83;;;17.80;69.40;;;20.53;46.59;98235.06;4907301;29;20255;-50
2022/10/28 04:29:48;;;;;;;6.57;3.20;;;17.80;69.00;;;20.55;46.38;98230.25;4906919;29;20058;-47
2022/10/28 04:32:15;;;;;;;9.18;2.90;;;17.90;69.10;;;20.58;46.08;98237.97;4906760;29;20048;-48
2022/10/28 04:34:43;;;;;;;4.88;2.70;;;17.90;68.80;;;20.61;45.86;98233.00;4906133;29;20049;-51
2022/10/28 04:37:11;;;;;;;4.97;3.05;;;17.90;68.90;;;20.62;46.02;98236.53;4906674;29;20055;-49
2022/10/28 04:39:43;;;;;;;4.20;3.20;;;17.90;68.50;;;20.64;45.68;98237.16;4906877;29;20045;-51
2022/10/28 04:42:11;;;;;;;6.82;2.60;;;17.90;68.50;;;20.65;45.81;98242.34;4906729;29;20235;-49
2022/10/28 04:44:39;;;;;;;7.00;3.45;;;17.90;68.50;;;20.65;45.69;98245.06;4905674;29;20056;-49
2022/10/28 04:47:06;;;;;;;5.63;2.78;;;17.90;68.20;;;20.65;45.77;98245.06;4889989;29;20344;-52
2022/10/28 04:49:34;;;;;;;6.68;3.03;;;18.00;67.90;;;20.67;46.29;98242.16;4906831;29;20057;-50
2022/10/28 04:52:05;;;;;;;5.25;3.00;;;18.00;68.30;;;20.67;46.09;98239.44;4906596;29;20373;-48
2022/10/28 04:54:37;;;;;;;8.65;3.13;;;18.00;68.10;;;20.69;45.70;98233.81;4906294;29;20338;-49
2022/10/28 04:57:05;;;;;;;6.72;3.28;;;18.00;67.80;;;20.72;45.65;98223.38;4906701;29;20063;-47
2022/10/28 04:59:33;;;;;;;4.70;2.40;;;18.10;67.50;;;20.74;45.90;98209.66;4906534;29;20045;-51
2022/10/28 05:02:01;;;;;;;10.88;3.17;;;18.10;67.40;;;20.74;45.37;98209.66;4906559;29;20059;-49
2022/10/28 05:04:29;;;;;;;5.88;2.75;;;18.10;67.40;;;20.70;45.42;98195.72;4906404;29;20060;-51
2022/10/28 05:06:56;;;;;;;5.38;2.90;;;18.10;67.40;;;20.72;45.75;98200.91;4906540;29;20059;-48
2022/10/28 05:09:24;;;;;;;3.67;2.20;;;18.10;67.20;;;20.74;45.75;98201.53;4906160;29;20064;-48
2022/10/28 05:11:53;;;;;;;9.23;3.45;;;18.10;67.40;;;20.72;45.23;98195.50;4906731;29;20048;-50
2022/10/28 05:14:21;;;;;;;8.77;2.92;;;18.10;66.70;;;20.71;45.20;98194.69;4889768;29;20051;-49
2022/10/28 05:16:48;;;;;;;5.90;3.03;;;18.10;66.10;;;20.65;44.62;98188.25;4906840;29;20048;-49
2022/10/28 05:19:16;;;;;;;5.20;2.83;;;18.00;65.80;;;20.64;44.62;98194.69;4909815;29;20059;-49
2022/10/28 05:21:44;;;;;;;3.63;2.47;;;18.10;65.90;;;20.64;44.85;98186.56;4910582;29;20055;-47
2022/10/28 05:24:12;;;;;;;5.18;3.25;;;18.10;65.70;;;20.64;44.73;98197.41;4909537;29;20060;-48
2022/10/28 05:26:39;;;;;;;4.90;2.97;;;18.10;65.50;;;20.64;44.84;98199.28;4909875;29;20055;-48
2022/10/28 05:29:07;;;;;;;4.95;2.63;;;18.10;65.80;;;20.63;44.92;98203.88;4910023;29;20052;-49
2022/10/28 05:31:35;;;;;;;6.60;2.40;;;18.00;65.90;;;20.61;44.30;98205.13;4909695;29;20063;-52
2022/10/28 05:34:03;;;;;;;3.95;2.15;;;18.00;65.00;;;20.61;44.33;98197.03;4909396;29;20044;-51
2022/10/28 05:36:30;;;;;;;5.50;2.30;;;18.00;64.70;;;20.64;43.84;98196.56;4909983;29;20055;-52
2022/10/28 05:38:58;;;;;;;3.72;1.98;;;18.00;64.10;;;20.67;43.85;98208.88;4909366;29;20240;-52
2022/10/28 05:41:26;;;;;;;6.07;2.97;;;18.10;63.40;;;20.74;43.46;98199.66;4909754;29;20044;-50
2022/10/28 05:43:54;;;;;;;8.43;3.10;;;18.20;62.80;;;20.78;43.49;98192.81;4909891;29;20346;-48
2022/10/28 05:46:22;;;;;;;5.13;2.38;;;18.30;62.60;;;20.81;43.22;98186.94;4909244;29;20059;-49
2022/10/28 05:48:49;;;;;;;7.00;2.83;;;18.30;62.80;;;20.87;43.31;98187.97;4909421;29;20054;-48
2022/10/28 05:51:17;;;;;;;5.20;2.40;;;18.30;62.50;;;20.89;43.23;98185.06;4909616;29;20049;-51
2022/10/28 05:53:45;;;;;;;6.03;2.45;;;18.30;62.20;;;20.90;43.33;98184.84;4908961;29;20052;-49
2022/10/28 05:56:13;;;;;;;4.82;2.80;;;18.30;62.20;;;20.93;42.86;98187.09;4909086;29;20048;-48
2022/10/28 05:58:40;;;;;;;6.53;2.30;;;18.40;61.60;;;20.94;42.73;98182.53;4892827;29;20055;-47
2022/10/28 06:01:09;;;;;;;4.72;2.53;;;18.40;61.70;;;20.96;42.36;98189.41;4909159;29;20072;-52
2022/10/28 06:03:36;;;;;;;4.38;2.30;;;18.40;61.30;;;20.91;42.36;98191.91;4909174;29;20059;-50
2022/10/28 06:06:05;;;;;;;3.65;2.22;;;18.40;60.80;;;20.93;42.55;98181.69;4892381;29;20052;-49
2022/10/28 06:08:33;;;;;;;3.78;2.55;;;18.40;61.00;;;20.90;42.72;98173.16;4908845;29;20049;-48
2022/10/28 06:11:04;;;;;;;5.32;2.78;;;18.40;60.60;;;20.96;42.86;98175.03;4909441;29;20057;-51
2022/10/28 06:13:36;;;;;;;4.57;2.55;;;18.40;61.20;;;20.97;42.34;98173.97;4909782;29;20062;-49
2022/10/28 06:16:05;;;;;;;5.18;2.33;;;18.40;60.30;;;21.02;42.84;98176.88;4892057;29;20048;-51
2022/10/28 06:18:33;;;;;;;5.68;2.33;;;18.50;61.20;;;21.02;42.51;98180.41;4908849;29;20048;-52
2022/10/28 06:21:01;;;;;;;4.75;2.47;;;18.50;61.20;;;21.04;42.41;98182.91;4908975;29;20055;-52
2022/10/28 06:23:28;;;;;;;4.85;1.98;;;18.50;61.10;;;21.08;42.05;98186.84;4908805;29;20049;-51
2022/10/28 06:26:02;;;;;;;4.70;2.17;;;18.50;60.90;;;21.10;42.05;98189.34;4908277;29;20052;-52
2022/10/28 06:28:31;;;;;;;5.70;2.03;;;18.50;58.90;;;21.06;42.01;98185.41;4908178;29;20052;-52
2022/10/28 06:31:04;;;;;;;8.38;2.88;;;18.50;59.30;;;21.03;41.73;98190.22;4891851;29;20048;-48
2022/10/28 06:33:32;;;;;;;8.73;2.97;;;18.60;58.70;;;21.10;41.74;98189.34;4905973;29;20048;-50
2022/10/28 06:36:01;;;;;;;7.53;2.78;;;18.60;59.30;;;21.18;41.56;98187.19;4907390;29;20049;-49
2022/10/28 06:38:30;;;;;;;4.10;2.47;;;18.60;58.90;;;21.24;41.28;98188.22;4908513;29;20049;-52
2022/10/28 06:40:58;;;;;;;6.32;3.20;;;18.70;58.00;;;21.28;41.34;98188.63;4908427;29;20048;-49
2022/10/28 06:43:26;;;;;;;5.65;2.85;;;18.80;58.40;;;21.34;41.28;98195.88;4908764;29;20216;-50
2022/10/28 06:45:55;;;;;;;4.93;2.50;;;18.80;58.30;;;21.40;40.94;98195.84;4908258;29;20055;-52
2022/10/28 06:48:24;;;;;;;4.97;2.65;;;18.90;58.20;;;21.45;41.16;98202.50;4908542;29;20053;-54
2022/10/28 06:50:56;;;;;;;7.97;2.55;;;18.90;58.00;;;21.50;40.59;98203.53;4907323;29;20048;-49
2022/10/28 06:53:27;;;;;;;6.70;2.50;;;18.90;58.00;;;21.55;41.06;98210.97;4908227;29;20048;-51
2022/10/28 06:55:58;;;;;;;6.55;2.13;;;18.90;58.20;;;21.57;40.26;98228.66;4891919;29;20300;-50
2022/10/28 06:58:27;;;;;;;5.13;2.80;;;19.00;57.20;;;21.38;41.05;98243.97;4907974;29;20052;-50
2022/10/28 07:00:55;;;;;;;5.47;2.55;;;19.00;57.70;;;21.43;41.75;98246.88;4889559;29;20373;-51
2022/10/28 07:03:23;;;;;;;6.32;3.38;;;18.90;59.20;;;21.47;41.85;98246.47;4894236;29;20047;-49
2022/10/28 07:05:51;;;;;;;5.35;2.70;;;18.80;59.70;;;21.43;41.84;98243.31;4905999;29;20056;-50
2022/10/28 07:08:20;;;;;;;8.70;2.47;;;18.70;61.00;;;21.32;41.52;98242.09;4907753;29;20078;-50
2022/10/28 07:10:56;;;;;;;9.30;2.30;;;18.60;59.90;;;21.32;41.36;98241.28;4890752;29;20057;-52
2022/10/28 07:13:25;;;;;;;4.93;2.63;;;18.70;59.00;;;21.35;41.60;98249.81;4907982;29;20056;-52
2022/10/28 07:15:55;;;;;;;8.77;3.42;;;18.70;59.50;;;21.40;41.74;98258.13;4907538;29;20169;-48
2022/10/28 07:18:26;;;;;;;5.68;2.47;;;18.80;59.70;;;21.49;41.50;98252.50;4907682;29;20052;-47
2022/10/28 07:20:58;;;;;;;5.82;2.42;;;18.80;59.80;;;21.55;41.54;98254.31;4891636;29;20254;-49
2022/10/28 07:23:27;;;;;;;5.75;2.72;;;18.90;59.90;;;21.62;41.75;98247.81;4907567;29;20078;-48
2022/10/28 07:25:56;;;;;;;5.95;2.70;;;18.90;60.00;;;21.68;41.70;98253.44;4907333;29;20056;-50
2022/10/28 07:28:25;;;;;;;6.78;3.13;;;19.00;60.10;;;21.69;41.62;98258.59;4907554;29;20052;-50
2022/10/28 07:30:53;;;;;;;5.82;3.33;;;19.00;59.90;;;21.69;41.62;98255.91;4907736;29;20380;-50
2022/10/28 07:33:22;;;;;;;10.90;3.95;;;19.00;60.00;;;21.73;41.89;98259.84;4907571;29;20344;-51
2022/10/28 07:35:50;;;;;;;4.90;3.10;;;19.00;60.00;;;21.75;41.86;98259.63;4906828;29;20056;-52
2022/10/28 07:38:18;;;;;;;4.03;2.05;;;19.00;60.00;;;21.77;41.58;98255.66;4907281;29;20063;-50
2022/10/28 07:40:46;;;;;;;5.93;2.67;;;19.10;59.80;;;21.77;41.72;98258.38;4907047;29;20060;-48
2022/10/28 07:43:14;;;;;;;5.03;2.40;;;19.10;59.70;;;21.81;41.17;98256.06;4907548;29;20044;-52
2022/10/28 07:45:42;;;;;;;5.07;2.50;;;19.20;59.30;;;21.81;41.11;98253.34;4906687;29;20369;-50
2022/10/28 07:48:10;;;;;;;7.70;2.97;;;19.20;59.10;;;21.83;41.14;98257.50;4890997;29;20053;-49
2022/10/28 07:50:41;;;;;;;5.32;2.40;;;19.20;58.90;;;21.83;41.28;98260.19;4907281;29;20059;-50
2022/10/28 07:53:09;;;;;;;5.20;3.00;;;19.30;58.70;;;21.86;41.36;98266.22;4907472;29;20353;-54
2022/10/28 07:55:38;;;;;;;6.43;3.13;;;19.30;59.00;;;21.89;41.32;98263.91;4906695;29;20226;-52
2022/10/28 07:58:06;;;;;;;7.03;2.70;;;19.30;59.10;;;21.94;41.12;98268.66;4907103;29;20070;-49
2022/10/28 08:00:34;;;;;;;5.95;2.75;;;19.30;58.90;;;21.99;40.79;98272.38;4907242;29;20048;-48
2022/10/28 08:03:02;;;;;;;6.03;3.05;;;19.40;58.60;;;22.05;40.56;98273.41;4907113;29;20051;-52
2022/10/28 08:05:30;;;;;;;4.95;2.33;;;19.40;58.10;;;22.07;40.69;98268.59;4906842;29;20052;-50
2022/10/28 08:07:58;;;;;;;8.07;3.30;;;19.40;57.90;;;22.10;40.91;98280.84;4906707;29;20059;-50
2022/10/28 08:10:26;;;;;;;4.88;2.72;;;19.50;58.30;;;22.11;40.90;98277.94;4906027;29;20074;-53
2022/10/28 08:12:59;;;;;;;7.07;2.50;;;19.50;58.30;;;22.15;40.68;98275.63;4906813;29;20052;-50
2022/10/28 08:15:28;;;;;;;7.72;3.25;;;19.50;57.80;;;22.19;40.43;98282.25;4906364;29;20048;-48
2022/10/28 08:17:56;;;;;;;7.93;2.70;;;19.60;58.10;;;22.25;40.87;98280.56;4906781;29;20060;-52
2022/10/28 08:20:24;;;;;;;5.57;2.75;;;19.60;58.10;;;22.28;40.52;98275.53;4907537;29;20052;-51
2022/10/28 08:22:53;;;;;;;4.25;2.47;;;19.60;57.70;;;22.31;40.83;98272.38;4906795;29;20338;-51
2022/10/28 08:25:21;;;;;;;5.25;2.33;;;19.70;59.00;;;22.35;40.62;98273.63;4906605;29;20064;-48
2022/10/28 08:27:49;;;;;;;6.13;3.47;;;19.70;58.10;;;22.36;40.42;98269.84;4906849;29;20052;-51
2022/10/28 08:30:17;;;;;;;7.70;4.28;;;19.70;58.10;;;22.38;40.67;98272.34;4906779;29;20369;-52
2022/10/28 08:32:45;;;;;;;5.20;2.75;;;19.70;58.10;;;22.38;40.04;98275.03;4907102;29;20075;-50
2022/10/28 08:35:13;;;;;;;7.75;2.72;;;19.70;57.60;;;22.36;40.21;98277.97;4905901;29;20056;-47
2022/10/28 08:37:44;;;;;;;3.50;2.35;;;19.80;57.50;;;22.38;40.08;98270.44;4906627;29;20053;-51
2022/10/28 08:40:13;;;;;;;7.47;3.08;;;19.80;57.10;;;22.38;39.91;98275.88;4906722;29;20051;-53
2022/10/28 08:42:48;;;;;;;7.53;2.20;;;19.80;57.00;;;22.40;40.11;98278.38;4906760;29;20067;-50
2022/10/28 08:45:30;;;;;;;5.32;2.55;;;19.80;56.90;;;22.40;40.01;98272.94;4905927;29;20052;-51
2022/10/28 08:48:32;;;;;;;4.35;2.40;;;19.80;56.70;;;22.45;40.35;98278.53;4906680;29;20232;-52
2022/10/28 08:51:37;;;;;;;4.03;2.08;;;19.80;56.40;;;22.50;39.99;98286.00;4890124;29;20332;-51
2022/10/28 08:54:23;;;;;;;5.05;3.17;;;19.80;56.30;;;22.57;40.01;98281.34;4910383;29;20049;-48
2022/10/28 08:56:57;;;;;;;7.47;3.38;;;20.00;56.20;;;22.54;39.56;98284.50;4879159;29;20052;-52
2022/10/28 08:59:39;;;;;;;5.10;2.58;;;19.90;56.20;;;22.54;39.66;98290.75;4910619;29;20270;-50
2022/10/28 09:02:10;;;;;;;4.35;3.17;;;20.00;55.60;;;22.55;39.75;98294.31;4893643;29;20059;-53
2022/10/28 09:04:44;;;;;;;7.32;2.50;;;20.00;56.20;;;22.59;39.67;98298.22;4909715;29;20052;-52
2022/10/28 09:07:19;;;;;;;5.50;3.20;;;20.00;56.50;;;22.64;39.86;98287.53;4910153;29;20048;-51
2022/10/28 09:09:50;;;;;;;5.30;2.17;;;20.00;56.30;;;22.67;40.36;98273.53;4910274;29;20084;-51
2022/10/28 09:12:51;;;;;;;4.32;2.38;;;20.10;57.60;;;22.67;40.52;98273.53;4909835;29;20049;-50
2022/10/28 09:15:44;;;;;;;4.53;2.72;;;20.10;57.60;;;22.72;40.56;98249.25;4909923;29;20167;-53
2022/10/28 09:18:44;;;;;;;8.73;3.72;;;20.20;58.50;;;22.71;40.82;98269.31;4908878;29;20052;-53
2022/10/28 09:21:28;;;;;;;9.65;2.70;;;20.20;58.20;;;22.68;40.77;98280.63;4909943;29;20243;-52
2022/10/28 09:24:12;;;;;;;9.57;2.53;;;20.10;58.10;;;22.77;40.64;98273.81;4909871;29;20216;-49
2022/10/28 09:26:53;;;;;;;6.88;2.47;;;20.20;58.40;;;22.86;40.84;98257.28;4894795;29;20053;-54
2022/10/28 09:29:48;;;;;;;5.97;2.20;;;20.20;58.40;;;22.93;40.80;98272.41;4909781;29;20057;-51
2022/10/28 09:32:54;;;;;;;6.28;2.58;;;20.30;58.40;;;23.01;41.00;98273.97;4886990;29;20251;-50
2022/10/28 09:35:27;;;;;;;8.98;3.20;;;20.40;58.30;;;23.11;40.51;98284.34;4891296;29;20057;-53
2022/10/28 09:38:23;;;;;;;5.30;2.85;;;20.50;58.30;;;23.19;40.47;98282.19;4893557;29;20056;-51
2022/10/28 09:41:13;;;;;;;9.23;2.65;;;20.50;57.20;;;23.20;39.96;98272.13;4909659;29;20049;-54
2022/10/28 09:44:12;;;;;;;5.15;2.53;;;20.60;56.60;;;23.22;39.53;98271.91;4895389;29;20055;-52
2022/10/28 09:46:40;;;;;;;4.43;2.33;;;20.60;55.70;;;23.24;39.84;98267.91;4899904;29;20082;-50
2022/10/28 09:49:19;;;;;;;3.88;2.42;;;20.60;56.40;;;23.22;40.02;98267.28;4893073;29;20057;-50
2022/10/28 09:51:59;;;;;;;6.75;3.15;;;20.70;56.60;;;23.27;40.36;98272.88;4892036;29;20052;-50
2022/10/28 09:54:38;;;;;;;6.35;2.45;;;20.70;57.40;;;23.34;40.57;98273.66;4909293;29;20060;-50
2022/10/28 09:57:07;;;;;;;6.68;2.60;;;20.80;57.80;;;23.38;40.60;98274.84;4892825;29;20055;-48
2022/10/28 09:59:36;;;;;;;6.45;3.58;;;20.80;57.60;;;23.37;40.04;98277.78;4909052;29;20377;-52
2022/10/28 10:02:04;;;;;;;6.55;3.08;;;20.90;56.90;;;23.44;40.24;98277.69;4908901;29;20048;-54
2022/10/28 10:04:34;;;;;;;5.47;2.95;;;20.90;57.20;;;23.46;40.04;98278.28;4907656;29;20045;-51
2022/10/28 10:07:13;;;;;;;11.80;3.05;;;20.90;57.20;;;23.50;40.44;98284.94;4908985;29;20059;-51
2022/10/28 10:09:43;;;;;;;4.80;2.65;;;20.90;57.20;;;23.45;40.03;98277.47;4908776;29;20071;-51
2022/10/28 10:12:12;;;;;;;4.90;2.67;;;20.90;57.40;;;23.48;40.49;98281.63;4892552;29;20063;-51
2022/10/28 10:14:47;;;;;;;5.88;2.45;;;21.00;57.50;;;23.47;40.51;98274.53;4892184;29;20052;-50
2022/10/28 10:17:42;;;;;;;8.00;3.13;;;20.80;57.50;;;23.48;40.43;98260.72;4893207;29;20044;-49
2022/10/28 10:20:20;;;;;;;6.43;3.15;;;20.90;57.70;;;23.53;40.25;98249.16;4884227;29;20354;-50
2022/10/28 10:22:49;;;;;;;6.18;3.22;;;20.90;57.70;;;23.51;40.54;98237.69;4890386;29;20055;-52
2022/10/28 10:25:17;;;;;;;5.35;2.92;;;20.90;57.80;;;23.51;40.33;98240.41;4889893;29;20073;-50
2022/10/28 10:28:14;;;;;;;8.23;2.78;;;21.00;57.90;;;23.54;40.68;98257.06;4890143;29;20059;-52
2022/10/28 10:30:58;;;;;;;7.18;3.42;;;21.00;57.90;;;23.63;40.87;98267.63;4889453;29;20359;-52
2022/10/28 10:33:38;;;;;;;5.65;2.60;;;21.00;58.50;;;23.69;40.59;98277.56;4888706;29;20365;-50
2022/10/28 10:36:09;;;;;;;5.60;2.45;;;21.00;58.20;;;23.66;40.23;98278.03;4888385;29;20063;-52
2022/10/28 10:38:55;;;;;;;4.95;2.40;;;21.10;57.80;;;23.70;40.40;98284.66;4889664;29;20049;-54
2022/10/28 10:41:41;;;;;;;4.43;2.42;;;21.10;57.70;;;23.82;40.15;98282.84;4889945;29;20055;-49
2022/10/28 10:44:21;;;;;;;5.93;2.45;;;21.20;57.00;;;23.85;39.92;98293.25;4889122;29;20053;-53
2022/10/28 10:47:01;;;;;;;12.30;2.83;;;21.20;56.80;;;23.85;40.00;98296.00;4890254;29;20063;-50
2022/10/28 10:49:42;;;;;;;4.70;3.75;;;21.30;57.00;;;23.87;40.65;98309.34;4888949;29;20045;-52
2022/10/28 10:52:24;;;;;;;5.40;2.13;;;21.30;58.10;;;23.86;41.04;98294.09;4889669;29;20061;-52